sensor_id;sensor_type;location;lat;lon;timestamp;pressure;altitude;pressure_sealevel;temperature;humidity
81970;BME280;71469;51.826;4.394;2023-07-24T00:01:16;100549.09;;;20.64;68.18
81970;BME280;71469;51.826;4.394;2023-07-24T00:03:43;100550.31;;;20.68;67.88
81970;BME280;71469;51.826;4.394;2023-07-24T00:06:08;100545.66;;;20.70;67.91
81970;BME280;71469;51.826;4.394;2023-07-24T00:08:33;100544.69;;;20.71;68.02
81970;BME280;71469;51.826;4.394;2023-07-24T00:10:59;100545.66;;;20.70;68.07
81970;BME280;71469;51.826;4.394;2023-07-24T00:13:24;100549.13;;;20.70;68.16
81970;BME280;71469;51.826;4.394;2023-07-24T00:15:50;100537.97;;;20.68;67.99
81970;BME280;71469;51.826;4.394;2023-07-24T00:18:15;100550.56;;;20.73;67.93
81970;BME280;71469;51.826;4.394;2023-07-24T00:20:40;100544.69;;;20.71;67.99
81970;BME280;71469;51.826;4.394;2023-07-24T00:23:06;100540.22;;;20.71;67.81
81970;BME280;71469;51.826;4.394;2023-07-24T00:25:31;100525.63;;;20.69;67.85
81970;BME280;71469;51.826;4.394;2023-07-24T00:27:56;100518.94;;;20.66;67.77
81970;BME280;71469;51.826;4.394;2023-07-24T00:30:22;100512.66;;;20.67;67.83
81970;BME280;71469;51.826;4.394;2023-07-24T00:32:47;100515.50;;;20.66;67.78
81970;BME280;71469;51.826;4.394;2023-07-24T00:35:12;100526.03;;;20.66;67.89
81970;BME280;71469;51.826;4.394;2023-07-24T00:37:37;100525.19;;;20.65;67.75
81970;BME280;71469;51.826;4.394;2023-07-24T00:40:03;100522.78;;;20.64;67.73
81970;BME280;71469;51.826;4.394;2023-07-24T00:42:29;100517.50;;;20.64;67.72
81970;BME280;71469;51.826;4.394;2023-07-24T00:44:54;100518.13;;;20.66;67.69
81970;BME280;71469;51.826;4.394;2023-07-24T00:47:20;100506.16;;;20.63;67.83
81970;BME280;71469;51.826;4.394;2023-07-24T00:49:45;100498.25;;;20.63;67.94
81970;BME280;71469;51.826;4.394;2023-07-24T00:52:12;100496.84;;;20.61;67.93
81970;BME280;71469;51.826;4.394;2023-07-24T00:54:38;100496.19;;;20.59;67.96
81970;BME280;71469;51.826;4.394;2023-07-24T00:57:04;100486.47;;;20.59;67.76
81970;BME280;71469;51.826;4.394;2023-07-24T00:59:30;100504.72;;;20.61;67.76
81970;BME280;71469;51.826;4.394;2023-07-24T01:01:56;100503.69;;;20.62;67.72
81970;BME280;71469;51.826;4.394;2023-07-24T01:04:22;100484.66;;;20.60;67.77
81970;BME280;71469;51.826;4.394;2023-07-24T01:06:47;100489.53;;;20.63;67.70
81970;BME280;71469;51.826;4.394;2023-07-24T01:09:12;100493.16;;;20.62;67.62
81970;BME280;71469;51.826;4.394;2023-07-24T01:11:44;100493.56;;;20.59;67.70
81970;BME280;71469;51.826;4.394;2023-07-24T01:14:40;100483.41;;;20.56;67.62
81970;BME280;71469;51.826;4.394;2023-07-24T01:17:08;100472.66;;;20.51;67.48
81970;BME280;71469;51.826;4.394;2023-07-24T01:19:42;100477.16;;;20.57;67.56
81970;BME280;71469;51.826;4.394;2023-07-24T01:22:10;100481.41;;;20.58;67.52
81970;BME280;71469;51.826;4.394;2023-07-24T01:27:20;100476.53;;;20.55;67.54
81970;BME280;71469;51.826;4.394;2023-07-24T01:29:45;100487.06;;;20.55;67.02
81970;BME280;71469;51.826;4.394;2023-07-24T01:32:10;100482.59;;;20.55;67.58
81970;BME280;71469;51.826;4.394;2023-07-24T01:34:36;100473.69;;;20.56;67.35
81970;BME280;71469;51.826;4.394;2023-07-24T01:37:01;100483.41;;;20.56;67.45
81970;BME280;71469;51.826;4.394;2023-07-24T01:39:27;100485.88;;;20.57;67.23
81970;BME280;71469;51.826;4.394;2023-07-24T01:41:53;100491.13;;;20.57;67.00
81970;BME280;71469;51.826;4.394;2023-07-24T01:44:18;100486.88;;;20.56;67.16
81970;BME280;71469;51.826;4.394;2023-07-24T01:46:43;100482.59;;;20.55;67.20
81970;BME280;71469;51.826;4.394;2023-07-24T01:49:10;100469.63;;;20.54;66.74
81970;BME280;71469;51.826;4.394;2023-07-24T01:51:35;100469.03;;;20.52;67.11
81970;BME280;71469;51.826;4.394;2023-07-24T01:54:00;100468.00;;;20.53;67.17
81970;BME280;71469;51.826;4.394;2023-07-24T01:56:25;100470.63;;;20.53;67.13
81970;BME280;71469;51.826;4.394;2023-07-24T01:58:51;100466.41;;;20.52;66.99
81970;BME280;71469;51.826;4.394;2023-07-24T02:01:16;100462.75;;;20.53;67.09
81970;BME280;71469;51.826;4.394;2023-07-24T02:03:41;100465.38;;;20.53;67.10
81970;BME280;71469;51.826;4.394;2023-07-24T02:06:07;100456.66;;;20.52;66.99
81970;BME280;71469;51.826;4.394;2023-07-24T02:08:32;100451.38;;;20.52;66.92
81970;BME280;71469;51.826;4.394;2023-07-24T02:10:57;100438.81;;;20.48;66.89
81970;BME280;71469;51.826;4.394;2023-07-24T02:13:23;100440.47;;;20.49;67.10
81970;BME280;71469;51.826;4.394;2023-07-24T02:15:48;100452.00;;;20.48;67.06
81970;BME280;71469;51.826;4.394;2023-07-24T02:18:13;100440.84;;;20.46;66.94
81970;BME280;71469;51.826;4.394;2023-07-24T02:20:39;100454.19;;;20.44;67.15
81970;BME280;71469;51.826;4.394;2023-07-24T02:23:04;100445.88;;;20.40;67.26
81970;BME280;71469;51.826;4.394;2023-07-24T02:25:29;100432.09;;;20.38;67.30
81970;BME280;71469;51.826;4.394;2023-07-24T02:27:54;100432.69;;;20.40;67.17
81970;BME280;71469;51.826;4.394;2023-07-24T02:30:20;100424.63;;;20.42;67.20
81970;BME280;71469;51.826;4.394;2023-07-24T02:32:45;100415.31;;;20.39;66.91
81970;BME280;71469;51.826;4.394;2023-07-24T02:35:10;100406.81;;;20.44;66.92
81970;BME280;71469;51.826;4.394;2023-07-24T02:37:36;100406.81;;;20.44;66.95
81970;BME280;71469;51.826;4.394;2023-07-24T02:40:01;100404.38;;;20.42;66.86
81970;BME280;71469;51.826;4.394;2023-07-24T02:42:26;100404.78;;;20.39;66.96
81970;BME280;71469;51.826;4.394;2023-07-24T02:44:51;100428.69;;;20.45;66.71
81970;BME280;71469;51.826;4.394;2023-07-24T02:47:18;100425.06;;;20.46;66.58
81970;BME280;71469;51.826;4.394;2023-07-24T02:49:43;100409.25;;;20.46;66.82
81970;BME280;71469;51.826;4.394;2023-07-24T02:52:08;100406.19;;;20.42;66.53
81970;BME280;71469;51.826;4.394;2023-07-24T02:54:34;100433.13;;;20.44;66.70
81970;BME280;71469;51.826;4.394;2023-07-24T02:56:59;100420.19;;;20.42;66.62
81970;BME280;71469;51.826;4.394;2023-07-24T02:59:24;100423.41;;;20.45;66.72
81970;BME280;71469;51.826;4.394;2023-07-24T03:01:50;100425.44;;;20.42;66.65
81970;BME280;71469;51.826;4.394;2023-07-24T03:04:15;100422.81;;;20.42;66.76
81970;BME280;71469;51.826;4.394;2023-07-24T03:06:40;100427.06;;;20.43;66.76
81970;BME280;71469;51.826;4.394;2023-07-24T03:09:06;100432.69;;;20.40;66.78
81970;BME280;71469;51.826;4.394;2023-07-24T03:11:31;100430.06;;;20.40;66.67
81970;BME280;71469;51.826;4.394;2023-07-24T03:13:56;100425.44;;;20.42;66.75
81970;BME280;71469;51.826;4.394;2023-07-24T03:16:22;100429.25;;;20.40;66.76
81970;BME280;71469;51.826;4.394;2023-07-24T03:18:47;100431.09;;;20.39;66.66
81970;BME280;71469;51.826;4.394;2023-07-24T03:21:12;100433.72;;;20.39;66.75
81970;BME280;71469;51.826;4.394;2023-07-24T03:23:38;100423.59;;;20.36;66.56
81970;BME280;71469;51.826;4.394;2023-07-24T03:26:03;100422.94;;;20.34;66.70
81970;BME280;71469;51.826;4.394;2023-07-24T03:28:28;100421.34;;;20.33;66.69
81970;BME280;71469;51.826;4.394;2023-07-24T03:30:54;100416.06;;;20.33;66.73
81970;BME280;71469;51.826;4.394;2023-07-24T03:33:20;100416.06;;;20.33;66.68
81970;BME280;71469;51.826;4.394;2023-07-24T03:35:45;100409.19;;;20.32;67.00
81970;BME280;71469;51.826;4.394;2023-07-24T03:38:11;100407.53;;;20.31;66.84
81970;BME280;71469;51.826;4.394;2023-07-24T03:40:36;100404.31;;;20.29;66.77
81970;BME280;71469;51.826;4.394;2023-07-24T03:43:01;100398.22;;;20.29;66.77
81970;BME280;71469;51.826;4.394;2023-07-24T03:45:26;100405.13;;;20.30;66.76
81970;BME280;71469;51.826;4.394;2023-07-24T03:47:52;100402.50;;;20.30;66.71
81970;BME280;71469;51.826;4.394;2023-07-24T03:50:17;100391.75;;;20.31;66.74
81970;BME280;71469;51.826;4.394;2023-07-24T03:52:42;100402.28;;;20.31;66.63
81970;BME280;71469;51.826;4.394;2023-07-24T03:55:08;100401.47;;;20.31;66.76
81970;BME280;71469;51.826;4.394;2023-07-24T03:57:34;100408.38;;;20.32;66.53
81970;BME280;71469;51.826;4.394;2023-07-24T03:59:59;100402.50;;;20.30;66.55
81970;BME280;71469;51.826;4.394;2023-07-24T04:02:24;100394.97;;;20.27;66.51
81970;BME280;71469;51.826;4.394;2023-07-24T04:04:50;100406.31;;;20.27;66.65
81970;BME280;71469;51.826;4.394;2023-07-24T04:07:15;100410.31;;;20.23;66.79
81970;BME280;71469;51.826;4.394;2023-07-24T04:09:40;100408.13;;;20.27;66.67
81970;BME280;71469;51.826;4.394;2023-07-24T04:12:06;100411.94;;;20.24;66.73
81970;BME280;71469;51.826;4.394;2023-07-24T04:14:31;100403.22;;;20.24;66.67
81970;BME280;71469;51.826;4.394;2023-07-24T04:16:56;100412.94;;;20.23;66.79
81970;BME280;71469;51.826;4.394;2023-07-24T04:19:22;100413.16;;;20.22;66.99
81970;BME280;71469;51.826;4.394;2023-07-24T04:21:47;100413.91;;;20.16;66.86
81970;BME280;71469;51.826;4.394;2023-07-24T04:24:12;100420.59;;;20.18;67.17
81970;BME280;71469;51.826;4.394;2023-07-24T04:26:38;100431.75;;;20.20;67.13
81970;BME280;71469;51.826;4.394;2023-07-24T04:29:05;100427.69;;;20.18;67.13
81970;BME280;71469;51.826;4.394;2023-07-24T04:31:30;100414.09;;;20.14;67.26
81970;BME280;71469;51.826;4.394;2023-07-24T04:33:55;100420.78;;;20.17;67.26
81970;BME280;71469;51.826;4.394;2023-07-24T04:36:21;100411.47;;;20.14;67.07
81970;BME280;71469;51.826;4.394;2023-07-24T04:38:46;100407.84;;;20.15;67.09
81970;BME280;71469;51.826;4.394;2023-07-24T04:41:12;100416.94;;;20.19;67.12
81970;BME280;71469;51.826;4.394;2023-07-24T04:43:37;100422.22;;;20.19;67.00
81970;BME280;71469;51.826;4.394;2023-07-24T04:46:03;100414.53;;;20.18;67.07
81970;BME280;71469;51.826;4.394;2023-07-24T04:48:29;100414.97;;;20.21;67.00
81970;BME280;71469;51.826;4.394;2023-07-24T04:50:54;100416.38;;;20.24;66.79
81970;BME280;71469;51.826;4.394;2023-07-24T04:53:20;100422.47;;;20.24;66.88
81970;BME280;71469;51.826;4.394;2023-07-24T04:55:46;100424.47;;;20.22;66.66
81970;BME280;71469;51.826;4.394;2023-07-24T04:58:11;100420.84;;;20.23;67.02
81970;BME280;71469;51.826;4.394;2023-07-24T05:00:37;100411.94;;;20.24;66.72
81970;BME280;71469;51.826;4.394;2023-07-24T05:03:02;100411.13;;;20.24;66.75
81970;BME280;71469;51.826;4.394;2023-07-24T05:05:27;100410.31;;;20.23;66.61
81970;BME280;71469;51.826;4.394;2023-07-24T05:07:53;100411.94;;;20.24;66.57
81970;BME280;71469;51.826;4.394;2023-07-24T05:10:18;100418.03;;;20.25;66.45
81970;BME280;71469;51.826;4.394;2023-07-24T05:12:43;100418.84;;;20.25;66.40
81970;BME280;71469;51.826;4.394;2023-07-24T05:15:09;100422.28;;;20.26;66.42
81970;BME280;71469;51.826;4.394;2023-07-24T05:17:34;100418.84;;;20.25;66.34
81970;BME280;71469;51.826;4.394;2023-07-24T05:20:00;100410.13;;;20.25;66.12
81970;BME280;71469;51.826;4.394;2023-07-24T05:22:25;100418.28;;;20.30;66.29
81970;BME280;71469;51.826;4.394;2023-07-24T05:24:50;100419.31;;;20.35;66.39
81970;BME280;71469;51.826;4.394;2023-07-24T05:27:15;100420.78;;;20.45;66.45
81970;BME280;71469;51.826;4.394;2023-07-24T05:29:41;100417.81;;;20.54;65.87
81970;BME280;71469;51.826;4.394;2023-07-24T05:32:06;100416.22;;;20.60;65.62
81970;BME280;71469;51.826;4.394;2023-07-24T05:34:32;100421.50;;;20.66;65.47
81970;BME280;71469;51.826;4.394;2023-07-24T05:36:57;100423.53;;;20.71;65.18
81970;BME280;71469;51.826;4.394;2023-07-24T05:39:22;100419.31;;;20.76;65.00
81970;BME280;71469;51.826;4.394;2023-07-24T05:41:47;100423.34;;;20.79;64.75
81970;BME280;71469;51.826;4.394;2023-07-24T05:44:13;100425.59;;;20.82;64.64
81970;BME280;71469;51.826;4.394;2023-07-24T05:46:39;100425.84;;;20.87;64.49
81970;BME280;71469;51.826;4.394;2023-07-24T05:49:04;100426.44;;;20.89;64.40
81970;BME280;71469;51.826;4.394;2023-07-24T05:51:29;100432.97;;;20.93;64.21
81970;BME280;71469;51.826;4.394;2023-07-24T05:53:54;100415.34;;;20.93;63.98
81970;BME280;71469;51.826;4.394;2023-07-24T05:56:20;100406.63;;;20.93;63.85
81970;BME280;71469;51.826;4.394;2023-07-24T05:58:45;100425.25;;;20.98;63.66
81970;BME280;71469;51.826;4.394;2023-07-24T06:01:10;100424.06;;;21.01;63.41
81970;BME280;71469;51.826;4.394;2023-07-24T06:03:36;100424.44;;;20.97;63.39
81970;BME280;71469;51.826;4.394;2023-07-24T06:06:02;100429.31;;;21.01;63.20
81970;BME280;71469;51.826;4.394;2023-07-24T06:08:27;100433.38;;;21.03;63.10
81970;BME280;71469;51.826;4.394;2023-07-24T06:10:52;100433.78;;;21.07;63.08
81970;BME280;71469;51.826;4.394;2023-07-24T06:13:18;100432.63;;;21.09;62.93
81970;BME280;71469;51.826;4.394;2023-07-24T06:15:44;100432.22;;;21.12;62.66
81970;BME280;71469;51.826;4.394;2023-07-24T06:18:10;100432.47;;;21.17;62.50
81970;BME280;71469;51.826;4.394;2023-07-24T06:20:35;100438.13;;;21.21;62.39
81970;BME280;71469;51.826;4.394;2023-07-24T06:23:01;100437.94;;;21.22;62.19
81970;BME280;71469;51.826;4.394;2023-07-24T06:25:29;100432.66;;;21.22;62.11
81970;BME280;71469;51.826;4.394;2023-07-24T06:27:54;100443.81;;;21.24;62.32
81970;BME280;71469;51.826;4.394;2023-07-24T06:30:19;100439.97;;;21.27;62.21
81970;BME280;71469;51.826;4.394;2023-07-24T06:32:45;100431.03;;;21.28;62.11
81970;BME280;71469;51.826;4.394;2023-07-24T06:35:10;100434.69;;;21.27;62.12
81970;BME280;71469;51.826;4.394;2023-07-24T06:37:35;100445.66;;;21.30;61.84
81970;BME280;71469;51.826;4.394;2023-07-24T06:40:01;100448.91;;;21.32;61.84
81970;BME280;71469;51.826;4.394;2023-07-24T06:42:26;100447.28;;;21.31;61.80
81970;BME280;71469;51.826;4.394;2023-07-24T06:44:51;100446.06;;;21.34;61.83
81970;BME280;71469;51.826;4.394;2023-07-24T06:47:17;100452.34;;;21.33;61.82
81970;BME280;71469;51.826;4.394;2023-07-24T06:49:42;100445.03;;;21.28;61.74
81970;BME280;71469;51.826;4.394;2023-07-24T06:52:07;100450.91;;;21.30;61.86
81970;BME280;71469;51.826;4.394;2023-07-24T06:54:32;100447.28;;;21.31;61.88
81970;BME280;71469;51.826;4.394;2023-07-24T06:56:58;100453.38;;;21.32;61.88
81970;BME280;71469;51.826;4.394;2023-07-24T06:59:23;100442.41;;;21.28;62.08
81970;BME280;71469;51.826;4.394;2023-07-24T07:01:48;100444.03;;;21.29;61.89
81970;BME280;71469;51.826;4.394;2023-07-24T07:04:14;100443.66;;;21.32;61.89
81970;BME280;71469;51.826;4.394;2023-07-24T07:06:39;100442.00;;;21.31;61.79
81970;BME280;71469;51.826;4.394;2023-07-24T07:09:04;100438.78;;;21.29;61.94
81970;BME280;71469;51.826;4.394;2023-07-24T07:11:30;100438.78;;;21.29;62.05
81970;BME280;71469;51.826;4.394;2023-07-24T07:13:55;100435.31;;;21.29;61.95
81970;BME280;71469;51.826;4.394;2023-07-24T07:16:21;100435.09;;;21.30;61.87
81970;BME280;71469;51.826;4.394;2023-07-24T07:18:46;100445.25;;;21.33;61.97
81970;BME280;71469;51.826;4.394;2023-07-24T07:21:11;100422.56;;;21.32;61.82
81970;BME280;71469;51.826;4.394;2023-07-24T07:23:37;100434.31;;;21.36;61.91
81970;BME280;71469;51.826;4.394;2023-07-24T07:26:02;100429.03;;;21.36;61.83
81970;BME280;71469;51.826;4.394;2023-07-24T07:28:27;100432.31;;;21.38;61.81
81970;BME280;71469;51.826;4.394;2023-07-24T07:30:53;100431.88;;;21.41;61.75
81970;BME280;71469;51.826;4.394;2023-07-24T07:33:19;100429.88;;;21.43;61.63
81970;BME280;71469;51.826;4.394;2023-07-24T07:35:47;100425.19;;;21.45;61.63
81970;BME280;71469;51.826;4.394;2023-07-24T07:38:12;100430.66;;;21.50;61.44
81970;BME280;71469;51.826;4.394;2023-07-24T07:40:38;100428.66;;;21.52;61.64
81970;BME280;71469;51.826;4.394;2023-07-24T07:43:04;100432.28;;;21.51;61.09
81970;BME280;71469;51.826;4.394;2023-07-24T07:45:29;100429.84;;;21.57;61.04
81970;BME280;71469;51.826;4.394;2023-07-24T07:47:55;100432.09;;;21.60;61.26
81970;BME280;71469;51.826;4.394;2023-07-24T07:50:20;100414.03;;;21.57;61.08
81970;BME280;71469;51.826;4.394;2023-07-24T07:52:46;100425.81;;;21.61;61.20
81970;BME280;71469;51.826;4.394;2023-07-24T07:55:14;100430.69;;;21.64;60.93
81970;BME280;71469;51.826;4.394;2023-07-24T07:57:39;100427.44;;;21.62;60.88
81970;BME280;71469;51.826;4.394;2023-07-24T08:00:05;100430.50;;;21.65;60.82
81970;BME280;71469;51.826;4.394;2023-07-24T08:02:33;100430.88;;;21.69;60.90
81970;BME280;71469;51.826;4.394;2023-07-24T08:04:59;100432.72;;;21.75;60.67
81970;BME280;71469;51.826;4.394;2023-07-24T08:07:25;100427.44;;;21.75;60.58
81970;BME280;71469;51.826;4.394;2023-07-24T08:09:50;100428.66;;;21.79;60.29
81970;BME280;71469;51.826;4.394;2023-07-24T08:12:15;100422.38;;;21.80;60.50
81970;BME280;71469;51.826;4.394;2023-07-24T08:14:41;100426.22;;;21.84;60.13
81970;BME280;71469;51.826;4.394;2023-07-24T08:17:06;100418.94;;;21.86;60.38
81970;BME280;71469;51.826;4.394;2023-07-24T08:19:32;100422.56;;;21.85;60.13
81970;BME280;71469;51.826;4.394;2023-07-24T08:21:57;100430.13;;;21.88;60.28
81970;BME280;71469;51.826;4.394;2023-07-24T08:24:22;100427.06;;;21.91;59.86
81970;BME280;71469;51.826;4.394;2023-07-24T08:26:48;100432.34;;;21.91;60.40
81970;BME280;71469;51.826;4.394;2023-07-24T08:29:13;100422.59;;;21.91;59.97
81970;BME280;71469;51.826;4.394;2023-07-24T08:31:39;100419.34;;;21.89;59.91
81970;BME280;71469;51.826;4.394;2023-07-24T08:34:04;100418.94;;;21.86;59.71
81970;BME280;71469;51.826;4.394;2023-07-24T08:36:29;100421.75;;;21.84;59.94
81970;BME280;71469;51.826;4.394;2023-07-24T08:38:55;100421.56;;;21.86;59.77
81970;BME280;71469;51.826;4.394;2023-07-24T08:41:20;100414.84;;;21.83;59.97
81970;BME280;71469;51.826;4.394;2023-07-24T08:43:46;100422.19;;;21.88;59.36
81970;BME280;71469;51.826;4.394;2023-07-24T08:46:11;100415.25;;;21.87;59.67
81970;BME280;71469;51.826;4.394;2023-07-24T08:48:40;100426.63;;;21.87;59.54
81970;BME280;71469;51.826;4.394;2023-07-24T08:51:08;100407.97;;;21.82;59.52
81970;BME280;71469;51.826;4.394;2023-07-24T08:53:35;100392.75;;;21.78;59.29
81970;BME280;71469;51.826;4.394;2023-07-24T08:56:05;100411.66;;;21.88;59.41
81970;BME280;71469;51.826;4.394;2023-07-24T08:58:31;100399.44;;;21.87;59.38
81970;BME280;71469;51.826;4.394;2023-07-24T09:00:57;100389.53;;;21.89;59.42
81970;BME280;71469;51.826;4.394;2023-07-24T09:03:23;100377.94;;;21.90;59.16
81970;BME280;71469;51.826;4.394;2023-07-24T09:05:48;100379.34;;;21.92;59.00
81970;BME280;71469;51.826;4.394;2023-07-24T09:08:14;100380.56;;;21.96;59.19
81970;BME280;71469;51.826;4.394;2023-07-24T09:10:40;100376.72;;;21.99;58.97
81970;BME280;71469;51.826;4.394;2023-07-24T09:13:05;100370.63;;;21.98;59.03
81970;BME280;71469;51.826;4.394;2023-07-24T09:15:43;100376.94;;;22.04;58.85
81970;BME280;71469;51.826;4.394;2023-07-24T09:18:10;100380.56;;;22.10;58.48
81970;BME280;71469;51.826;4.394;2023-07-24T09:20:42;100388.88;;;22.13;58.51
81970;BME280;71469;51.826;4.394;2023-07-24T09:23:09;100389.06;;;22.18;58.13
81970;BME280;71469;51.826;4.394;2023-07-24T09:25:36;100395.75;;;22.21;58.05
81970;BME280;71469;51.826;4.394;2023-07-24T09:30:36;100387.63;;;22.22;58.26
81970;BME280;71469;51.826;4.394;2023-07-24T09:33:02;100390.06;;;22.17;58.08
81970;BME280;71469;51.826;4.394;2023-07-24T09:35:27;100397.00;;;22.18;57.95
81970;BME280;71469;51.826;4.394;2023-07-24T09:38:10;100392.31;;;22.14;58.22
81970;BME280;71469;51.826;4.394;2023-07-24T09:40:41;100399.03;;;22.10;58.06
81970;BME280;71469;51.826;4.394;2023-07-24T09:43:21;100393.97;;;22.01;58.54
81970;BME280;71469;51.826;4.394;2023-07-24T09:45:48;100394.00;;;21.95;58.79
81970;BME280;71469;51.826;4.394;2023-07-24T09:48:14;100389.72;;;21.94;58.61
81970;BME280;71469;51.826;4.394;2023-07-24T09:50:45;100391.75;;;21.92;59.04
81970;BME280;71469;51.826;4.394;2023-07-24T09:53:21;100388.50;;;21.90;58.94
81970;BME280;71469;51.826;4.394;2023-07-24T09:58:23;100394.81;;;21.89;58.90
81970;BME280;71469;51.826;4.394;2023-07-24T10:00:50;100395.41;;;21.91;59.18
81970;BME280;71469;51.826;4.394;2023-07-24T10:03:16;100391.75;;;21.92;59.06
81970;BME280;71469;51.826;4.394;2023-07-24T10:05:44;100395.59;;;21.96;59.24
81970;BME280;71469;51.826;4.394;2023-07-24T10:08:10;100399.28;;;21.95;59.04
81970;BME280;71469;51.826;4.394;2023-07-24T10:10:37;100395.00;;;21.94;59.03
81970;BME280;71469;51.826;4.394;2023-07-24T10:13:03;100388.31;;;21.98;58.91
81970;BME280;71469;51.826;4.394;2023-07-24T10:15:29;100387.28;;;21.99;59.28
81970;BME280;71469;51.826;4.394;2023-07-24T10:18:03;100383.63;;;22.00;58.90
81970;BME280;71469;51.826;4.394;2023-07-24T10:20:33;100385.25;;;22.01;58.87
81970;BME280;71469;51.826;4.394;2023-07-24T10:23:02;100392.94;;;22.09;59.04
81970;BME280;71469;51.826;4.394;2023-07-24T10:25:32;100392.53;;;22.12;58.50
81970;BME280;71469;51.826;4.394;2023-07-24T10:28:05;100393.72;;;22.16;58.85
81970;BME280;71469;51.826;4.394;2023-07-24T10:30:34;100390.47;;;22.21;58.45
81970;BME280;71469;51.826;4.394;2023-07-24T10:33:08;100395.53;;;22.22;58.47
81970;BME280;71469;51.826;4.394;2023-07-24T10:35:54;100394.34;;;22.25;58.40
81970;BME280;71469;51.826;4.394;2023-07-24T10:38:20;100377.06;;;22.22;58.55
81970;BME280;71469;51.826;4.394;2023-07-24T10:41:01;100391.28;;;22.21;58.47
81970;BME280;71469;51.826;4.394;2023-07-24T10:43:27;100394.13;;;22.20;58.46
81970;BME280;71469;51.826;4.394;2023-07-24T10:45:54;100381.16;;;22.18;58.66
81970;BME280;71469;51.826;4.394;2023-07-24T10:48:22;100388.66;;;22.21;58.73
81970;BME280;71469;51.826;4.394;2023-07-24T10:50:49;100392.47;;;22.25;58.77
81970;BME280;71469;51.826;4.394;2023-07-24T10:53:16;100394.28;;;22.31;58.50
81970;BME280;71469;51.826;4.394;2023-07-24T10:55:45;100395.69;;;22.40;58.02
81970;BME280;71469;51.826;4.394;2023-07-24T10:58:13;100393.66;;;22.49;58.02
81970;BME280;71469;51.826;4.394;2023-07-24T11:00:39;100393.59;;;22.55;57.90
81970;BME280;71469;51.826;4.394;2023-07-24T11:03:08;100394.81;;;22.59;57.56
81970;BME280;71469;51.826;4.394;2023-07-24T11:05:33;100397.47;;;22.59;57.47
81970;BME280;71469;51.826;4.394;2023-07-24T11:07:59;100397.25;;;22.61;57.65
81970;BME280;71469;51.826;4.394;2023-07-24T11:10:24;100403.97;;;22.64;57.44
81970;BME280;71469;51.826;4.394;2023-07-24T11:12:49;100401.13;;;22.65;57.17
81970;BME280;71469;51.826;4.394;2023-07-24T11:15:24;100408.22;;;22.65;57.41
81970;BME280;71469;51.826;4.394;2023-07-24T11:17:53;100411.06;;;22.63;57.49
81970;BME280;71469;51.826;4.394;2023-07-24T11:20:19;100417.59;;;22.60;56.98
81970;BME280;71469;51.826;4.394;2023-07-24T11:22:45;100417.59;;;22.60;57.34
81970;BME280;71469;51.826;4.394;2023-07-24T11:25:10;100422.88;;;22.60;57.44
81970;BME280;71469;51.826;4.394;2023-07-24T11:27:40;100410.66;;;22.59;57.35
81970;BME280;71469;51.826;4.394;2023-07-24T11:30:07;100420.66;;;22.57;57.34
81970;BME280;71469;51.826;4.394;2023-07-24T11:32:33;100414.75;;;22.55;57.06
81970;BME280;71469;51.826;4.394;2023-07-24T11:34:59;100415.78;;;22.54;57.28
81970;BME280;71469;51.826;4.394;2023-07-24T11:37:25;100417.38;;;22.55;57.06
81970;BME280;71469;51.826;4.394;2023-07-24T11:39:58;100411.47;;;22.60;57.05
81970;BME280;71469;51.826;4.394;2023-07-24T11:42:27;100416.38;;;22.70;56.90
81970;BME280;71469;51.826;4.394;2023-07-24T11:44:52;100407.78;;;22.74;56.59
81970;BME280;71469;51.826;4.394;2023-07-24T11:47:18;100425.25;;;22.82;56.41
81970;BME280;71469;51.826;4.394;2023-07-24T11:49:43;100426.03;;;22.82;56.05
81970;BME280;71469;51.826;4.394;2023-07-24T11:52:13;100417.91;;;22.84;56.24
81970;BME280;71469;51.826;4.394;2023-07-24T11:54:39;100425.44;;;22.87;55.79
81970;BME280;71469;51.826;4.394;2023-07-24T11:57:16;100428.81;;;22.94;55.90
81970;BME280;71469;51.826;4.394;2023-07-24T11:59:41;100422.75;;;22.93;55.85
81970;BME280;71469;51.826;4.394;2023-07-24T12:02:10;100421.53;;;22.96;55.54
81970;BME280;71469;51.826;4.394;2023-07-24T12:04:36;100415.63;;;22.94;55.42
81970;BME280;71469;51.826;4.394;2023-07-24T12:07:01;100425.56;;;22.98;55.41
81970;BME280;71469;51.826;4.394;2023-07-24T12:09:30;100419.03;;;23.01;55.26
81970;BME280;71469;51.826;4.394;2023-07-24T12:11:58;100423.91;;;23.04;55.04
81970;BME280;71469;51.826;4.394;2023-07-24T12:14:23;100422.47;;;23.08;54.76
81970;BME280;71469;51.826;4.394;2023-07-24T12:16:49;100416.53;;;23.12;54.99
81970;BME280;71469;51.826;4.394;2023-07-24T12:19:14;100413.03;;;23.19;54.43
81970;BME280;71469;51.826;4.394;2023-07-24T12:21:39;100418.13;;;23.20;54.42
81970;BME280;71469;51.826;4.394;2023-07-24T12:24:05;100424.66;;;23.18;54.37
81970;BME280;71469;51.826;4.394;2023-07-24T12:26:30;100422.59;;;23.20;54.56
81970;BME280;71469;51.826;4.394;2023-07-24T12:28:55;100422.38;;;23.21;54.20
81970;BME280;71469;51.826;4.394;2023-07-24T12:31:21;100422.81;;;23.18;54.42
81970;BME280;71469;51.826;4.394;2023-07-24T12:33:47;100430.56;;;23.13;54.45
81970;BME280;71469;51.826;4.394;2023-07-24T12:36:12;100426.56;;;23.04;54.66
81970;BME280;71469;51.826;4.394;2023-07-24T12:38:37;100422.94;;;22.98;54.80
81970;BME280;71469;51.826;4.394;2023-07-24T12:41:02;100429.63;;;23.01;54.85
81970;BME280;71469;51.826;4.394;2023-07-24T12:43:28;100420.88;;;23.00;54.78
81970;BME280;71469;51.826;4.394;2023-07-24T12:45:53;100418.66;;;22.97;55.36
81970;BME280;71469;51.826;4.394;2023-07-24T12:48:18;100418.66;;;22.97;55.43
81970;BME280;71469;51.826;4.394;2023-07-24T12:50:44;100425.16;;;23.01;55.08
81970;BME280;71469;51.826;4.394;2023-07-24T12:53:09;100421.50;;;23.02;55.28